createdAt,value
2022-09-30T00:01:17.610Z,9.30
2022-09-30T00:03:49.586Z,9.30
2022-09-30T00:06:20.714Z,9.30
2022-09-30T00:08:47.556Z,9.40
2022-09-30T00:11:19.022Z,9.40
2022-09-30T00:13:50.538Z,9.50
2022-09-30T00:16:18.063Z,9.50
2022-09-30T00:18:45.006Z,9.50
2022-09-30T00:21:12.061Z,9.50
2022-09-30T00:23:43.356Z,9.50
2022-09-30T00:26:20.591Z,9.50
2022-09-30T00:28:52.438Z,9.60
2022-09-30T00:31:19.751Z,9.60
2022-09-30T00:34:06.723Z,9.60
2022-09-30T00:36:34.360Z,9.60
2022-09-30T00:39:01.146Z,9.60
2022-09-30T00:41:30.177Z,9.60
2022-09-30T00:43:56.860Z,9.60
2022-09-30T00:46:26.402Z,9.60
2022-09-30T00:48:54.140Z,9.60
2022-09-30T00:51:31.416Z,9.60
2022-09-30T00:54:01.092Z,9.60
2022-09-30T00:56:37.531Z,9.60
2022-09-30T00:59:12.301Z,9.50
2022-09-30T01:01:39.862Z,9.50
2022-09-30T01:04:16.188Z,9.50
2022-09-30T01:06:46.313Z,9.40
2022-09-30T01:09:17.711Z,9.40
2022-09-30T01:11:47.164Z,9.40
2022-09-30T01:14:19.149Z,9.40
2022-09-30T01:16:45.814Z,9.30
2022-09-30T01:19:24.816Z,9.30
2022-09-30T01:21:57.729Z,9.20
2022-09-30T01:24:46.557Z,9.30
2022-09-30T01:27:35.108Z,9.20
2022-09-30T01:30:12.672Z,9.20
2022-09-30T01:33:04.042Z,9.20
2022-09-30T01:35:57.275Z,9.10
2022-09-30T01:38:29.403Z,9.20
2022-09-30T01:41:28.396Z,9.20
2022-09-30T01:44:26.067Z,9.20
2022-09-30T01:47:00.384Z,9.10
2022-09-30T01:49:38.819Z,9.10
2022-09-30T01:52:13.446Z,9.10
2022-09-30T01:54:43.893Z,9.10
2022-09-30T01:57:19.272Z,9.10
2022-09-30T02:00:22.948Z,9.10
2022-09-30T02:03:09.442Z,9.10
2022-09-30T02:05:55.897Z,9.00
2022-09-30T02:09:15.738Z,9.00
2022-09-30T02:11:44.974Z,9.00
2022-09-30T02:14:26.097Z,8.90
2022-09-30T02:17:02.471Z,8.90
2022-09-30T02:19:43.215Z,8.90
2022-09-30T02:22:17.436Z,8.90
2022-09-30T02:24:46.073Z,8.90
2022-09-30T02:27:42.314Z,8.90
2022-09-30T02:30:09.831Z,8.90
2022-09-30T02:32:57.422Z,8.90
2022-09-30T02:35:34.258Z,8.80
2022-09-30T02:38:05.601Z,8.80
2022-09-30T02:40:52.730Z,8.80
2022-09-30T02:43:20.663Z,8.80
2022-09-30T02:46:06.933Z,8.80
2022-09-30T02:48:55.997Z,8.80
2022-09-30T02:51:24.455Z,8.70
2022-09-30T02:54:22.613Z,8.70
2022-09-30T02:56:55.079Z,8.70
2022-09-30T02:59:26.981Z,8.70
2022-09-30T03:01:56.377Z,8.60
2022-09-30T03:04:25.077Z,8.60
2022-09-30T03:06:51.763Z,8.60
2022-09-30T03:09:18.639Z,8.60
2022-09-30T03:11:45.431Z,8.60
2022-09-30T03:14:27.832Z,8.60
2022-09-30T03:17:24.612Z,8.60
2022-09-30T03:20:14.729Z,8.60
2022-09-30T03:22:51.312Z,8.50
2022-09-30T03:25:23.792Z,8.50
2022-09-30T03:28:02.479Z,8.50
2022-09-30T03:30:29.275Z,8.50
2022-09-30T03:32:55.945Z,8.50
2022-09-30T03:35:38.912Z,8.50
2022-09-30T03:38:27.056Z,8.50
2022-09-30T03:41:08.499Z,8.50
2022-09-30T03:43:36.625Z,8.50
2022-09-30T03:46:03.343Z,8.50
2022-09-30T03:48:30.147Z,8.40
2022-09-30T03:50:59.096Z,8.40
2022-09-30T03:53:28.359Z,8.40
2022-09-30T03:55:55.625Z,8.40
2022-09-30T03:58:23.500Z,8.40
2022-09-30T04:00:51.459Z,8.40
2022-09-30T04:03:19.747Z,8.40
2022-09-30T04:05:48.884Z,8.40
2022-09-30T04:08:18.015Z,8.40
2022-09-30T04:10:44.901Z,8.40
2022-09-30T04:13:14.065Z,8.40
2022-09-30T04:15:41.669Z,8.40
2022-09-30T04:18:08.381Z,8.40
2022-09-30T04:20:35.173Z,8.40
2022-09-30T04:23:04.051Z,8.40
2022-09-30T04:25:30.813Z,8.40
2022-09-30T04:27:57.735Z,8.30
2022-09-30T04:30:27.167Z,8.30
2022-09-30T04:32:54.049Z,8.30
2022-09-30T04:35:20.802Z,8.30
2022-09-30T04:37:47.669Z,8.30
2022-09-30T04:40:17.788Z,8.30
2022-09-30T04:42:44.603Z,8.30
2022-09-30T04:45:12.177Z,8.30
2022-09-30T04:47:39.417Z,8.30
2022-09-30T04:50:08.773Z,8.30
2022-09-30T04:52:35.529Z,8.30
2022-09-30T04:55:02.221Z,8.30
2022-09-30T04:57:29.001Z,8.30
2022-09-30T04:59:57.920Z,8.20
2022-09-30T05:02:26.860Z,8.20
2022-09-30T05:04:55.803Z,8.20
2022-09-30T05:07:22.616Z,8.20
2022-09-30T05:09:49.316Z,8.20
2022-09-30T05:12:16.183Z,8.20
2022-09-30T05:14:42.894Z,8.20
2022-09-30T05:17:11.871Z,8.20
2022-09-30T05:19:38.581Z,8.10
2022-09-30T05:22:07.531Z,8.20
2022-09-30T05:24:34.210Z,8.20
2022-09-30T05:27:05.815Z,8.10
2022-09-30T05:29:32.690Z,8.20
2022-09-30T05:31:59.729Z,8.20
2022-09-30T05:34:26.587Z,8.20
2022-09-30T05:36:53.485Z,8.20
2022-09-30T05:39:20.242Z,8.20
2022-09-30T05:41:49.115Z,8.20
2022-09-30T05:44:19.359Z,8.30
2022-09-30T05:46:48.271Z,8.30
2022-09-30T05:49:15.047Z,8.30
2022-09-30T05:51:44.394Z,8.30
2022-09-30T05:54:14.135Z,8.40
2022-09-30T05:56:41.011Z,8.40
2022-09-30T05:59:09.872Z,8.50
2022-09-30T06:01:36.974Z,8.50
2022-09-30T06:04:06.342Z,8.60
2022-09-30T06:06:33.035Z,8.60
2022-09-30T06:09:00.352Z,8.60
2022-09-30T06:11:27.155Z,8.60
2022-09-30T06:13:54.287Z,8.60
2022-09-30T06:16:24.077Z,8.60
2022-09-30T06:18:50.939Z,8.60
2022-09-30T06:21:21.009Z,8.70
2022-09-30T06:23:50.305Z,8.70
2022-09-30T06:26:19.631Z,8.60
2022-09-30T06:28:46.435Z,8.60
2022-09-30T06:31:13.275Z,8.60
2022-09-30T06:33:40.090Z,8.60
2022-09-30T06:36:07.241Z,8.50
2022-09-30T06:38:35.929Z,8.60
2022-09-30T06:41:02.684Z,8.60
2022-09-30T06:43:41.483Z,8.50
2022-09-30T06:46:24.420Z,8.50
2022-09-30T06:49:10.289Z,8.50
2022-09-30T06:51:44.556Z,8.50
2022-09-30T06:54:11.298Z,8.50
2022-09-30T06:56:40.544Z,8.50
2022-09-30T06:59:09.458Z,8.50
2022-09-30T07:01:36.224Z,8.60
2022-09-30T07:04:08.155Z,8.60
2022-09-30T07:06:34.911Z,8.70
2022-09-30T07:09:04.512Z,8.70
2022-09-30T07:11:31.264Z,8.70
2022-09-30T07:13:58.006Z,8.90
2022-09-30T07:16:27.308Z,8.80
2022-09-30T07:18:54.394Z,8.80
2022-09-30T07:21:21.366Z,8.90
2022-09-30T07:23:48.348Z,8.90
2022-09-30T07:26:19.709Z,8.90
2022-09-30T07:28:46.532Z,8.90
2022-09-30T07:31:35.424Z,8.90
2022-09-30T07:34:07.783Z,9.00
2022-09-30T07:36:39.531Z,9.00
2022-09-30T07:39:07.659Z,9.10
2022-09-30T07:41:35.749Z,9.10
2022-09-30T07:44:03.032Z,9.20
2022-09-30T07:46:33.419Z,9.30
2022-09-30T07:49:02.222Z,9.30
2022-09-30T07:51:31.375Z,9.30
2022-09-30T07:54:06.093Z,9.50
2022-09-30T07:56:51.139Z,9.40
2022-09-30T07:59:20.121Z,9.50
2022-09-30T08:01:49.321Z,9.60
2022-09-30T08:04:16.368Z,9.60
2022-09-30T08:06:45.638Z,9.70
2022-09-30T08:09:15.673Z,9.80
2022-09-30T08:11:43.060Z,9.90
2022-09-30T08:14:19.536Z,9.90
2022-09-30T08:16:51.664Z,10.00
2022-09-30T08:19:27.699Z,10.00
2022-09-30T08:21:54.718Z,10.10
2022-09-30T08:24:22.145Z,10.20
2022-09-30T08:26:49.148Z,10.30
2022-09-30T08:29:20.561Z,10.30
2022-09-30T08:31:52.401Z,10.30
2022-09-30T08:34:19.348Z,10.40
2022-09-30T08:36:46.738Z,10.50
2022-09-30T08:39:16.240Z,10.50
2022-09-30T08:41:42.868Z,10.60
2022-09-30T08:44:26.771Z,10.60
2022-09-30T08:47:12.381Z,10.70
2022-09-30T08:50:04.231Z,10.80
2022-09-30T08:52:49.120Z,10.80
2022-09-30T08:55:25.251Z,10.90
2022-09-30T08:57:53.016Z,10.90
2022-09-30T09:00:25.011Z,11.00
2022-09-30T09:02:55.912Z,11.10
2022-09-30T09:05:25.805Z,11.10
2022-09-30T09:07:58.075Z,11.20
2022-09-30T09:10:34.365Z,11.20
2022-09-30T09:13:14.209Z,11.20
2022-09-30T09:15:45.948Z,11.30
2022-09-30T09:18:35.752Z,11.30
2022-09-30T09:21:36.667Z,11.30
2022-09-30T09:24:03.527Z,11.40
2022-09-30T09:26:32.906Z,11.40
2022-09-30T09:29:12.830Z,11.60
2022-09-30T09:31:39.583Z,11.40
2022-09-30T09:34:11.386Z,11.60
2022-09-30T09:36:56.579Z,11.60
2022-09-30T09:39:54.114Z,11.80
2022-09-30T09:42:34.860Z,11.80
2022-09-30T09:45:13.540Z,11.80
2022-09-30T09:47:40.659Z,11.80
2022-09-30T09:50:15.018Z,12.00
2022-09-30T09:52:47.648Z,11.90
2022-09-30T09:55:17.702Z,11.90
2022-09-30T09:57:44.641Z,11.90
2022-09-30T10:00:31.387Z,11.90
2022-09-30T10:03:04.135Z,12.00
2022-09-30T10:05:32.527Z,12.10
2022-09-30T10:08:21.025Z,12.20
2022-09-30T10:10:51.915Z,12.20
2022-09-30T10:13:45.568Z,12.20
2022-09-30T10:16:31.219Z,12.30
2022-09-30T10:18:58.815Z,12.30
2022-09-30T10:21:31.695Z,12.30
2022-09-30T10:23:59.880Z,12.40
2022-09-30T10:26:29.943Z,12.30
2022-09-30T10:28:57.529Z,12.30
2022-09-30T10:31:36.681Z,12.40
2022-09-30T10:34:21.500Z,12.40
2022-09-30T10:36:50.720Z,12.50
2022-09-30T10:39:24.043Z,12.60
2022-09-30T10:41:51.889Z,12.60
2022-09-30T10:44:22.615Z,12.60
2022-09-30T10:46:51.268Z,12.60
2022-09-30T10:49:28.378Z,12.70
2022-09-30T10:51:56.700Z,12.70
2022-09-30T10:54:52.287Z,12.80
2022-09-30T10:57:23.682Z,12.90
2022-09-30T10:59:52.483Z,13.00
2022-09-30T11:02:58.870Z,12.90
2022-09-30T11:05:29.527Z,13.10
2022-09-30T11:08:15.629Z,13.10
2022-09-30T11:10:51.456Z,13.10
2022-09-30T11:13:32.119Z,13.20
2022-09-30T11:16:09.732Z,13.20
2022-09-30T11:18:47.568Z,13.20
2022-09-30T11:21:44.969Z,13.10
2022-09-30T11:24:15.389Z,13.20
2022-09-30T11:27:08.758Z,13.10
2022-09-30T11:29:47.644Z,13.20
2022-09-30T11:32:23.284Z,13.20
2022-09-30T11:35:05.062Z,13.20
2022-09-30T11:37:34.828Z,13.20
2022-09-30T11:40:13.648Z,13.20
2022-09-30T11:42:46.460Z,13.30
2022-09-30T11:45:35.824Z,13.30
2022-09-30T11:48:42.434Z,13.30
2022-09-30T11:51:18.501Z,13.30
2022-09-30T11:54:04.455Z,13.40
2022-09-30T11:56:43.096Z,13.40
2022-09-30T11:59:23.441Z,13.40
2022-09-30T12:01:51.166Z,13.40
2022-09-30T12:04:37.329Z,13.40
2022-09-30T12:07:21.779Z,13.40
2022-09-30T12:09:56.514Z,13.40
2022-09-30T12:12:25.788Z,13.40
2022-09-30T12:15:03.431Z,13.40
2022-09-30T12:17:39.954Z,13.40
2022-09-30T12:20:22.072Z,13.40
2022-09-30T12:22:52.162Z,13.40
2022-09-30T12:25:21.271Z,13.40
2022-09-30T12:27:57.612Z,13.50
2022-09-30T12:30:24.466Z,13.50
2022-09-30T12:33:10.887Z,13.50
2022-09-30T12:35:46.438Z,13.50
2022-09-30T12:38:19.023Z,13.50
2022-09-30T12:40:51.568Z,13.50
2022-09-30T12:43:38.809Z,13.50
2022-09-30T12:46:45.797Z,13.50
2022-09-30T12:49:15.025Z,13.50
2022-09-30T12:51:45.148Z,13.60
2022-09-30T12:54:17.965Z,13.60
2022-09-30T12:56:48.363Z,13.70
2022-09-30T12:59:15.098Z,13.70
2022-09-30T13:01:42.216Z,13.70
2022-09-30T13:04:08.865Z,13.70
2022-09-30T13:06:47.805Z,13.70
2022-09-30T13:09:17.343Z,13.80
2022-09-30T13:11:56.819Z,13.80
2022-09-30T13:14:37.889Z,13.80
2022-09-30T13:17:26.059Z,13.80
2022-09-30T13:19:53.971Z,13.80
2022-09-30T13:22:20.615Z,13.70
2022-09-30T13:25:00.619Z,13.70
2022-09-30T13:27:42.600Z,13.70
2022-09-30T13:30:15.615Z,13.70
2022-09-30T13:33:11.380Z,13.70
2022-09-30T13:35:41.783Z,13.70
2022-09-30T13:38:14.209Z,13.70
2022-09-30T13:41:01.852Z,13.70
2022-09-30T13:43:47.263Z,13.70
2022-09-30T13:46:18.145Z,13.70
2022-09-30T13:48:57.019Z,13.60
2022-09-30T13:51:27.700Z,13.60
2022-09-30T13:53:58.509Z,13.60
2022-09-30T13:56:30.574Z,13.60
2022-09-30T13:59:21.645Z,13.60
2022-09-30T14:02:05.691Z,13.60
2022-09-30T14:05:07.597Z,13.60
2022-09-30T14:07:52.517Z,13.60
2022-09-30T14:10:36.968Z,13.60
2022-09-30T14:13:09.700Z,13.70
2022-09-30T14:15:57.301Z,13.60
2022-09-30T14:18:47.485Z,13.60
2022-09-30T14:21:31.813Z,13.60
2022-09-30T14:24:09.846Z,13.60
2022-09-30T14:26:52.947Z,13.70
2022-09-30T14:29:40.522Z,13.70
2022-09-30T14:32:18.885Z,13.70
2022-09-30T14:34:52.153Z,13.60
2022-09-30T14:37:28.044Z,13.70
2022-09-30T14:39:54.874Z,13.70
2022-09-30T14:42:30.493Z,13.60
2022-09-30T14:45:04.798Z,13.60
2022-09-30T14:47:39.009Z,13.60
2022-09-30T14:50:16.350Z,13.60
2022-09-30T14:52:45.202Z,13.60
2022-09-30T14:55:23.554Z,13.60
2022-09-30T14:57:50.259Z,13.60
2022-09-30T15:00:28.284Z,13.60
2022-09-30T15:02:58.240Z,13.70
2022-09-30T15:05:25.706Z,13.70
2022-09-30T15:07:53.378Z,13.60
2022-09-30T15:10:26.780Z,13.60
2022-09-30T15:12:55.197Z,13.60
2022-09-30T15:15:28.787Z,13.60
2022-09-30T15:17:56.188Z,13.60
2022-09-30T15:20:28.031Z,13.60
2022-09-30T15:23:03.271Z,13.60
2022-09-30T15:25:30.546Z,13.60
2022-09-30T15:27:57.528Z,13.60
2022-09-30T15:30:29.297Z,13.80
2022-09-30T15:33:03.611Z,13.60
2022-09-30T15:35:35.404Z,13.60
2022-09-30T15:38:21.745Z,13.50
2022-09-30T15:41:10.027Z,13.60
2022-09-30T15:43:51.679Z,13.60
2022-09-30T15:46:28.848Z,13.50
2022-09-30T15:49:07.193Z,13.50
2022-09-30T15:51:38.086Z,13.40
2022-09-30T15:54:36.247Z,13.50
2022-09-30T15:57:06.099Z,13.50
2022-09-30T16:00:02.129Z,13.50
2022-09-30T16:02:29.531Z,13.50
2022-09-30T16:04:56.363Z,13.50
2022-09-30T16:07:29.065Z,13.50
2022-09-30T16:09:57.031Z,13.50
2022-09-30T16:12:25.957Z,13.40
2022-09-30T16:14:54.258Z,13.50
2022-09-30T16:17:32.586Z,13.40
2022-09-30T16:20:05.799Z,13.40
2022-09-30T16:22:35.487Z,13.40
2022-09-30T16:25:31.667Z,13.40
2022-09-30T16:27:59.212Z,13.40
2022-09-30T16:30:26.332Z,13.40
2022-09-30T16:32:58.215Z,13.30
2022-09-30T16:35:26.770Z,13.40
2022-09-30T16:38:04.572Z,13.30
2022-09-30T16:40:32.072Z,13.30
2022-09-30T16:42:59.132Z,13.30
2022-09-30T16:45:26.874Z,13.30
2022-09-30T16:47:53.995Z,13.40
2022-09-30T16:50:23.468Z,13.30
2022-09-30T16:52:50.236Z,13.30
2022-09-30T16:55:17.019Z,13.30
2022-09-30T16:57:48.243Z,13.20
2022-09-30T17:00:18.301Z,13.30
2022-09-30T17:02:46.561Z,13.20
2022-09-30T17:05:18.897Z,13.20
2022-09-30T17:07:49.913Z,13.20
2022-09-30T17:10:21.365Z,13.20
2022-09-30T17:12:49.039Z,13.20
2022-09-30T17:15:16.824Z,13.20
2022-09-30T17:17:43.987Z,13.20
2022-09-30T17:20:13.258Z,13.20
2022-09-30T17:22:39.979Z,13.20
2022-09-30T17:25:07.464Z,13.20
2022-09-30T17:27:36.754Z,13.20
2022-09-30T17:30:04.394Z,13.20
2022-09-30T17:32:31.209Z,13.20
2022-09-30T17:34:57.965Z,13.20
2022-09-30T17:37:29.800Z,13.10
2022-09-30T17:39:58.753Z,13.20
2022-09-30T17:42:44.014Z,13.20
2022-09-30T17:45:10.900Z,13.20
2022-09-30T17:47:39.708Z,13.20
2022-09-30T17:50:06.999Z,13.20
2022-09-30T17:52:34.396Z,13.20
2022-09-30T17:55:01.603Z,13.20
2022-09-30T17:57:28.457Z,13.20
2022-09-30T17:59:57.293Z,13.10
2022-09-30T18:02:25.344Z,13.20
2022-09-30T18:04:54.394Z,13.20
2022-09-30T18:07:22.894Z,13.10
2022-09-30T18:09:51.130Z,13.10
2022-09-30T18:12:20.062Z,13.20
2022-09-30T18:14:49.315Z,13.20
2022-09-30T18:17:16.021Z,13.00
2022-09-30T18:19:42.766Z,13.00
2022-09-30T18:22:10.591Z,13.00
2022-09-30T18:24:57.991Z,13.00
2022-09-30T18:27:26.088Z,13.00
2022-09-30T18:29:55.286Z,13.00
2022-09-30T18:32:21.997Z,13.00
2022-09-30T18:34:48.862Z,13.00
2022-09-30T18:37:15.619Z,13.00
2022-09-30T18:39:42.365Z,13.10
2022-09-30T18:42:09.378Z,13.10
2022-09-30T18:44:37.973Z,13.10
2022-09-30T18:47:05.604Z,13.00
2022-09-30T18:49:32.527Z,13.00
2022-09-30T18:52:03.206Z,13.00
2022-09-30T18:54:30.207Z,13.00
2022-09-30T18:56:56.956Z,13.00
2022-09-30T18:59:24.206Z,13.00
2022-09-30T19:01:51.229Z,13.00
2022-09-30T19:04:20.788Z,13.00
2022-09-30T19:06:47.773Z,13.00
2022-09-30T19:09:16.441Z,12.90
2022-09-30T19:11:44.850Z,12.90
2022-09-30T19:14:12.992Z,12.90
2022-09-30T19:16:40.174Z,12.90
2022-09-30T19:19:10.271Z,12.90
2022-09-30T19:21:40.083Z,12.90
2022-09-30T19:24:09.294Z,12.80
2022-09-30T19:26:37.116Z,12.80
2022-09-30T19:29:05.425Z,12.90
2022-09-30T19:31:37.615Z,12.90
2022-09-30T19:34:07.281Z,12.90
2022-09-30T19:36:50.084Z,12.90
2022-09-30T19:39:18.659Z,12.90
2022-09-30T19:41:47.999Z,12.80
2022-09-30T19:44:20.062Z,12.90
2022-09-30T19:46:50.685Z,12.90
2022-09-30T19:49:17.947Z,12.80
2022-09-30T19:51:44.707Z,12.80
2022-09-30T19:54:13.650Z,12.90
2022-09-30T19:56:40.607Z,12.90
2022-09-30T19:59:07.326Z,12.90
2022-09-30T20:01:37.417Z,12.90
2022-09-30T20:04:05.553Z,12.80
2022-09-30T20:06:34.862Z,12.80
2022-09-30T20:09:03.357Z,12.80
2022-09-30T20:11:35.976Z,12.80
2022-09-30T20:14:23.200Z,12.80
2022-09-30T20:16:49.981Z,12.80
2022-09-30T20:19:17.259Z,12.80
2022-09-30T20:21:44.438Z,12.80
2022-09-30T20:24:12.384Z,12.80
2022-09-30T20:26:39.517Z,12.80
2022-09-30T20:29:08.919Z,12.80
2022-09-30T20:31:38.751Z,12.80
2022-09-30T20:34:05.500Z,12.70
2022-09-30T20:36:32.370Z,12.80
2022-09-30T20:39:02.612Z,12.90
2022-09-30T20:41:35.707Z,12.80
2022-09-30T20:44:07.509Z,12.80
2022-09-30T20:46:37.333Z,12.80
2022-09-30T20:49:06.297Z,12.80
2022-09-30T20:51:33.433Z,12.80
2022-09-30T20:54:00.455Z,12.80
2022-09-30T20:56:39.330Z,12.80
2022-09-30T20:59:16.631Z,12.80
2022-09-30T21:01:43.689Z,12.80
2022-09-30T21:04:12.843Z,12.80
2022-09-30T21:06:39.720Z,12.80
2022-09-30T21:09:11.037Z,12.80
2022-09-30T21:11:40.996Z,12.80
2022-09-30T21:14:07.954Z,12.80
2022-09-30T21:16:34.742Z,12.70
2022-09-30T21:19:01.536Z,12.80
2022-09-30T21:21:30.639Z,12.80
2022-09-30T21:23:59.302Z,12.80
2022-09-30T21:26:26.647Z,12.80
2022-09-30T21:28:55.532Z,12.80
2022-09-30T21:31:26.847Z,12.70
2022-09-30T21:33:56.356Z,12.80
2022-09-30T21:36:23.166Z,12.70
2022-09-30T21:38:52.356Z,12.70
2022-09-30T21:41:19.741Z,12.70
2022-09-30T21:43:47.112Z,12.70
2022-09-30T21:46:14.961Z,12.70
2022-09-30T21:48:45.544Z,12.70
2022-09-30T21:51:13.855Z,12.70
2022-09-30T21:53:40.755Z,12.70
2022-09-30T21:56:07.504Z,12.70
2022-09-30T21:58:34.218Z,12.70
2022-09-30T22:01:03.379Z,12.70
2022-09-30T22:03:37.782Z,12.70
2022-09-30T22:06:07.450Z,12.70
2022-09-30T22:08:36.371Z,12.80
2022-09-30T22:11:04.037Z,12.70
2022-09-30T22:13:32.906Z,12.60
2022-09-30T22:16:03.555Z,12.70
2022-09-30T22:18:32.196Z,12.70
2022-09-30T22:21:03.713Z,12.70
2022-09-30T22:23:30.372Z,12.70
2022-09-30T22:25:57.589Z,12.70
2022-09-30T22:28:27.031Z,12.70
2022-09-30T22:30:56.002Z,12.70
2022-09-30T22:33:43.797Z,12.70
2022-09-30T22:36:29.262Z,12.70
2022-09-30T22:38:58.161Z,12.70
2022-09-30T22:41:27.096Z,12.70
2022-09-30T22:43:56.709Z,12.70
2022-09-30T22:46:23.468Z,12.60
2022-09-30T22:48:50.373Z,12.60
2022-09-30T22:51:17.200Z,12.60
2022-09-30T22:53:46.351Z,12.60
2022-09-30T22:56:13.123Z,12.60
2022-09-30T22:58:39.883Z,12.60
2022-09-30T23:01:07.243Z,12.60
2022-09-30T23:03:34.996Z,12.60
2022-09-30T23:06:02.431Z,12.60
2022-09-30T23:08:33.488Z,12.60
2022-09-30T23:11:00.386Z,12.60
2022-09-30T23:13:30.644Z,12.60
2022-09-30T23:16:00.388Z,12.50
2022-09-30T23:18:28.044Z,12.40
2022-09-30T23:20:58.943Z,12.50
2022-09-30T23:23:25.826Z,12.50
2022-09-30T23:26:09.932Z,12.40
2022-09-30T23:28:36.700Z,12.50
2022-09-30T23:31:05.221Z,12.50
2022-09-30T23:33:31.967Z,12.50
2022-09-30T23:36:01.632Z,12.50
2022-09-30T23:38:28.715Z,12.50
2022-09-30T23:41:01.231Z,12.70
2022-09-30T23:43:31.376Z,12.40
2022-09-30T23:46:01.150Z,12.50
2022-09-30T23:48:27.967Z,12.50
2022-09-30T23:50:54.793Z,12.40
2022-09-30T23:53:24.377Z,12.50
2022-09-30T23:56:17.757Z,12.50
2022-09-30T23:58:44.929Z,12.40
